createdAt,value
2024-04-12T00:00:13.055Z,14.6
2024-04-12T00:15:38.215Z,14.6
2024-04-12T00:31:03.032Z,14.5
2024-04-12T00:46:28.139Z,14.5
2024-04-12T01:01:52.815Z,14.5
2024-04-12T01:17:17.910Z,14.5
2024-04-12T01:32:43.307Z,14.5
2024-04-12T01:48:08.836Z,14.5
2024-04-12T02:03:34.409Z,14.6
2024-04-12T02:19:00.153Z,14.6
2024-04-12T02:34:26.398Z,14.6
2024-04-12T02:49:50.976Z,14.6
2024-04-12T03:05:16.044Z,14.6
2024-04-12T03:20:40.558Z,14.6
2024-04-12T03:36:05.422Z,14.6
2024-04-12T03:51:30.128Z,14.6
2024-04-12T04:06:54.931Z,14.7
2024-04-12T04:22:19.552Z,14.7
2024-04-12T04:37:44.556Z,14.6
2024-04-12T04:53:09.342Z,14.6
2024-04-12T05:08:33.991Z,14.6
2024-04-12T05:23:58.837Z,14.6
2024-04-12T05:39:24.403Z,14.7
2024-04-12T05:54:49.055Z,14.7
2024-04-12T06:10:13.754Z,14.9
2024-04-12T06:25:38.797Z,15
2024-04-12T06:41:04.514Z,15.2
2024-04-12T06:56:29.871Z,15.4
2024-04-12T07:11:55.374Z,15.7
2024-04-12T07:27:21.581Z,15.8
2024-04-12T07:42:46.432Z,15.8
2024-04-12T07:58:11.897Z,15.8
2024-04-12T08:13:36.828Z,15.9
2024-04-12T08:29:02.007Z,16
2024-04-12T08:44:27.207Z,16.1
2024-04-12T08:59:52.091Z,16.2
2024-04-12T09:15:17.361Z,16.6
2024-04-12T09:30:42.919Z,16.8
2024-04-12T09:46:08.042Z,16.8
2024-04-12T10:01:33.474Z,17
2024-04-12T10:16:59.333Z,17.2
2024-04-12T10:32:24.892Z,17.1
2024-04-12T10:47:51.074Z,17
2024-04-12T11:03:17.944Z,17.3
2024-04-12T11:18:51.510Z,17.6
2024-04-12T11:34:18.226Z,17.7
2024-04-12T11:50:06.475Z,17.9
2024-04-12T12:05:32.041Z,18.1
2024-04-12T12:20:57.470Z,18.3
2024-04-12T12:36:22.568Z,18.4
2024-04-12T12:51:47.681Z,18.4
2024-04-12T13:07:12.604Z,18.5
2024-04-12T13:22:37.402Z,18.6
2024-04-12T13:38:02.348Z,19
2024-04-12T13:53:27.065Z,19
2024-04-12T14:08:52.498Z,19.3
2024-04-12T14:24:17.845Z,19.6
2024-04-12T14:39:42.956Z,19.8
2024-04-12T14:55:07.768Z,19.9
2024-04-12T15:10:32.839Z,20.2
2024-04-12T15:25:58.051Z,20.3
2024-04-12T15:41:23.091Z,20.1
2024-04-12T15:56:47.591Z,19.9
2024-04-12T16:12:12.689Z,20.2
2024-04-12T16:27:38.048Z,20.2
2024-04-12T16:43:03.065Z,19.8
2024-04-12T16:58:28.142Z,19.5
2024-04-12T17:13:52.451Z,19.2
2024-04-12T17:29:16.986Z,19
2024-04-12T17:44:41.838Z,18.8
2024-04-12T18:00:06.832Z,18.5
2024-04-12T18:15:31.816Z,18.3
2024-04-12T18:30:57.189Z,18.3
2024-04-12T18:46:22.349Z,18.2
2024-04-12T19:01:47.564Z,18.1
2024-04-12T19:17:11.637Z,18
2024-04-12T19:32:36.574Z,17.8
2024-04-12T19:48:02.234Z,17.7
2024-04-12T20:03:28.124Z,17.5
2024-04-12T20:18:53.447Z,17.4
2024-04-12T20:34:19.124Z,17.2
2024-04-12T20:49:43.603Z,17.1
2024-04-12T21:05:07.844Z,16.9
2024-04-12T21:20:33.940Z,16.8
2024-04-12T21:35:59.170Z,16.7
2024-04-12T21:51:24.148Z,16.7
2024-04-12T22:06:50.621Z,16.6
2024-04-12T22:22:15.962Z,16.6
2024-04-12T22:37:40.592Z,16.5
2024-04-12T22:53:05.501Z,16.5
2024-04-12T23:08:29.836Z,16.4
2024-04-12T23:23:54.890Z,16.3
2024-04-12T23:39:20.149Z,16.2
2024-04-12T23:54:45.055Z,16
